createdAt,value
2016-05-26T00:00:12.746Z,75.31
2016-05-26T00:01:12.748Z,75.31
2016-05-26T00:02:12.782Z,75.41
2016-05-26T00:03:12.769Z,75.6
2016-05-26T00:04:12.773Z,75.31
2016-05-26T00:05:12.790Z,75.41
2016-05-26T00:06:12.778Z,75.7
2016-05-26T00:07:12.780Z,75.56
2016-05-26T00:08:12.783Z,75.18
2016-05-26T00:09:12.801Z,75.51
2016-05-26T00:10:12.803Z,75.6
2016-05-26T00:11:12.822Z,75.22
2016-05-26T00:12:12.902Z,75.37
2016-05-26T00:13:12.843Z,75.12
2016-05-26T00:14:12.831Z,75.02
2016-05-26T00:15:12.849Z,75.37
2016-05-26T00:16:12.836Z,75.51
2016-05-26T00:17:12.869Z,75.37
2016-05-26T00:18:13.482Z,75.31
2016-05-26T00:19:12.875Z,75.31
2016-05-26T00:20:12.909Z,75.37
2016-05-26T00:21:12.896Z,75.66
2016-05-26T00:22:12.899Z,75.47
2016-05-26T00:23:13.105Z,75.47
2016-05-26T00:24:12.919Z,75.18
2016-05-26T00:25:12.907Z,75.41
2016-05-26T00:26:12.940Z,75.47
2016-05-26T00:27:12.943Z,75.09
2016-05-26T00:28:13.149Z,75.18
2016-05-26T00:29:12.979Z,75.47
2016-05-26T00:31:13.392Z,75.37
2016-05-26T00:32:12.503Z,75.56
2016-05-26T00:33:13.256Z,75.56
2016-05-26T00:34:12.993Z,75.22
2016-05-26T00:35:13.012Z,75.27
2016-05-26T00:36:13.031Z,75.09
2016-05-26T00:37:13.018Z,74.99
2016-05-26T00:38:13.239Z,75.66
2016-05-26T00:39:13.039Z,75.47
2016-05-26T00:40:13.056Z,75.56
2016-05-26T00:41:13.044Z,75.56
2016-05-26T00:42:13.047Z,75.09
2016-05-26T00:43:13.049Z,75.56
2016-05-26T00:44:13.067Z,75.66
2016-05-26T00:45:13.085Z,75.95
2016-05-26T00:46:13.088Z,75.76
2016-05-26T00:47:13.091Z,75.47
2016-05-26T00:48:13.500Z,75.66
2016-05-26T00:49:13.111Z,75.27
2016-05-26T00:50:13.114Z,75.37
2016-05-26T00:51:13.133Z,76.33
2016-05-26T00:52:13.119Z,75.47
2016-05-26T00:53:12.982Z,76.14
2016-05-26T00:54:13.141Z,75.95
2016-05-26T00:55:13.159Z,76.23
2016-05-26T00:56:13.162Z,75.95
2016-05-26T00:57:13.165Z,75.56
2016-05-26T00:58:13.168Z,76.14
2016-05-26T00:59:13.185Z,75.62
2016-05-26T01:00:13.188Z,75.62
2016-05-26T01:02:13.193Z,75.71
2016-05-26T01:03:13.040Z,75.62
2016-05-26T01:04:13.402Z,75.91
2016-05-26T01:05:13.218Z,76.29
2016-05-26T01:06:13.220Z,75.81
2016-05-26T01:07:13.614Z,75.71
2016-05-26T01:08:13.241Z,75.71
2016-05-26T01:09:13.244Z,76.1
2016-05-26T01:10:13.247Z,75.62
2016-05-26T01:11:13.264Z,75.62
2016-05-26T01:12:13.268Z,75.62
2016-05-26T01:14:13.272Z,76.1
2016-05-26T01:15:13.119Z,76.1
2016-05-26T01:16:13.309Z,76
2016-05-26T01:17:13.297Z,76
2016-05-26T01:18:13.424Z,76.29
2016-05-26T01:19:13.302Z,75.91
2016-05-26T01:20:13.336Z,76.39
2016-05-26T01:21:13.308Z,76.29
2016-05-26T01:22:13.325Z,76.2
2016-05-26T01:23:13.327Z,76.2
2016-05-26T01:24:13.331Z,76.06
2016-05-26T01:25:13.349Z,76.54
2016-05-26T01:26:13.368Z,76.64
2016-05-26T01:27:13.370Z,76.64
2016-05-26T01:28:13.373Z,76.45
2016-05-26T01:29:13.579Z,76.82
2016-05-26T01:30:13.378Z,76.54
2016-05-26T01:31:13.382Z,76.35
2016-05-26T01:32:13.384Z,76.73
2016-05-26T01:33:13.449Z,76.82
2016-05-26T01:34:13.482Z,76.82
2016-05-26T01:35:13.407Z,76.73
2016-05-26T01:36:13.410Z,76.82
2016-05-26T01:37:13.413Z,77.01
2016-05-26T01:38:13.416Z,76.82
2016-05-26T01:39:13.434Z,77.01
2016-05-26T01:40:13.281Z,77.3
2016-05-26T01:41:13.455Z,77.3
2016-05-26T01:42:13.442Z,77.21
2016-05-26T01:43:13.304Z,77.5
2016-05-26T01:44:13.463Z,77.5
2016-05-26T01:45:13.466Z,77.3
2016-05-26T01:46:13.468Z,77.21
2016-05-26T01:47:13.486Z,77.3
2016-05-26T01:48:13.333Z,77.21
2016-05-26T01:49:13.679Z,77.59
2016-05-26T01:50:13.510Z,77.11
2016-05-26T01:51:13.497Z,77.21
2016-05-26T01:52:13.703Z,77.21
2016-05-26T01:53:13.519Z,77.3
2016-05-26T01:54:13.536Z,77.11
2016-05-26T01:55:13.524Z,77.21
2016-05-26T01:56:13.527Z,77.21
2016-05-26T01:57:13.561Z,77.59
2016-05-26T01:58:13.547Z,77.3
2016-05-26T01:59:13.550Z,77.5
2016-05-26T02:00:13.552Z,77.5
2016-05-26T02:01:13.602Z,77.11
2016-05-26T02:02:13.574Z,77.3
2016-05-26T02:03:13.607Z,77.4
2016-05-26T02:04:13.610Z,77.11
2016-05-26T02:05:13.597Z,76.92
2016-05-26T02:06:13.601Z,77.21
2016-05-26T02:07:13.806Z,77.3
2016-05-26T02:08:13.606Z,77.21
2016-05-26T02:09:13.623Z,77.3
2016-05-26T02:10:13.626Z,77.21
2016-05-26T02:11:13.457Z,77.21
2016-05-26T02:12:13.631Z,77.4
2016-05-26T02:13:13.635Z,77.21
2016-05-26T02:14:13.669Z,77.21
2016-05-26T02:15:13.655Z,77.21
2016-05-26T02:16:13.658Z,77.3
2016-05-26T02:17:13.677Z,77.5
2016-05-26T02:18:14.070Z,77.4
2016-05-26T02:19:13.683Z,77.5
2016-05-26T02:20:13.685Z,77.21
2016-05-26T02:21:13.703Z,76.92
2016-05-26T02:22:13.706Z,77.5
2016-05-26T02:23:13.708Z,77.21
2016-05-26T02:24:13.711Z,77.3
2016-05-26T02:25:13.557Z,76.82
2016-05-26T02:26:13.732Z,77.3
2016-05-26T02:27:13.735Z,76.82
2016-05-26T02:28:13.815Z,76.92
2016-05-26T02:29:13.740Z,77.78
2016-05-26T02:30:13.758Z,77.21
2016-05-26T02:31:13.745Z,76.92
2016-05-26T02:32:13.779Z,77.21
2016-05-26T02:33:14.251Z,77.59
2016-05-26T02:34:13.785Z,77.59
2016-05-26T02:35:13.788Z,77.21
2016-05-26T02:36:13.790Z,77.01
2016-05-26T02:37:13.809Z,77.3
2016-05-26T02:38:13.812Z,77.4
2016-05-26T02:39:13.861Z,77.72
2016-05-26T02:40:13.848Z,77.63
2016-05-26T02:41:13.679Z,77.63
2016-05-26T02:42:13.837Z,77.72
2016-05-26T02:43:13.684Z,77.01
2016-05-26T02:44:13.890Z,77.59
2016-05-26T02:45:13.705Z,77.78
2016-05-26T02:46:13.755Z,77.92
2016-05-26T02:47:13.725Z,77.53
2016-05-26T02:48:13.931Z,77.69
2016-05-26T02:49:13.903Z,77.92
2016-05-26T02:50:13.905Z,77.72
2016-05-26T02:51:13.908Z,77.34
2016-05-26T02:52:13.974Z,78.11
2016-05-26T02:53:13.914Z,77.78
2016-05-26T02:54:13.917Z,77.78
2016-05-26T02:55:13.967Z,77.92
2016-05-26T02:56:13.968Z,77.82
2016-05-26T02:57:13.956Z,77.63
2016-05-26T02:58:13.944Z,77.53
2016-05-26T02:59:14.180Z,77.82
2016-05-26T03:00:28.027Z,77.4
2016-05-26T03:01:14.013Z,77.82
2016-05-26T03:02:13.985Z,77.06
2016-05-26T03:03:14.019Z,77.15
2016-05-26T03:04:13.974Z,77.82
2016-05-26T03:05:14.009Z,77.72
2016-05-26T03:06:14.246Z,77.25
2016-05-26T03:07:14.107Z,77.63
2016-05-26T03:08:14.033Z,77.63
2016-05-26T03:09:14.035Z,77.72
2016-05-26T03:10:13.897Z,77.34
2016-05-26T03:11:17.665Z,77.92
2016-05-26T03:12:18.684Z,77.63
2016-05-26T03:13:15.187Z,77.25
2016-05-26T03:14:15.643Z,77.69
2016-05-26T03:15:14.817Z,77.82
2016-05-26T03:16:14.679Z,77.82
2016-05-26T03:17:14.198Z,77.44
2016-05-26T03:18:15.012Z,77.44
2016-05-26T03:20:14.486Z,77.63
2016-05-26T03:21:14.942Z,77.92
2016-05-26T03:22:14.070Z,78.01
2016-05-26T03:24:14.732Z,78.3
2016-05-26T03:25:14.578Z,78.01
2016-05-26T03:26:28.346Z,77.72
2016-05-26T03:27:28.599Z,77.72
2016-05-26T03:28:15.571Z,78.11
2016-05-26T03:29:21.089Z,78.2
2016-05-26T07:31:56.896Z,66.61
2016-05-26T07:32:19.367Z,66.52
2016-05-26T07:33:19.386Z,66.13
2016-05-26T07:34:19.404Z,66.42
2016-05-26T07:35:19.422Z,66.33
2016-05-26T07:36:19.424Z,67
2016-05-26T07:37:19.286Z,66.8
2016-05-26T07:38:19.501Z,66.61
2016-05-26T07:39:19.513Z,66.33
2016-05-26T07:40:19.400Z,66.03
2016-05-26T07:41:19.583Z,66.33
2016-05-26T07:42:19.618Z,66.52
2016-05-26T07:43:19.864Z,66.64
2016-05-26T07:44:33.719Z,66.64
2016-05-26T07:45:19.699Z,66.93
2016-05-26T07:46:19.695Z,66.84
2016-05-26T07:47:19.720Z,66.84
2016-05-26T07:48:19.584Z,66.55
2016-05-26T07:49:19.748Z,66.26
2016-05-26T07:50:19.754Z,65.69
2016-05-26T07:51:19.775Z,65.59
2016-05-26T07:52:19.780Z,65.69
2016-05-26T07:53:19.800Z,65.3
2016-05-26T07:54:20.022Z,65.11
2016-05-26T07:55:19.855Z,65.69
2016-05-26T07:56:20.031Z,65.62
2016-05-26T07:57:20.080Z,65.72
2016-05-26T07:58:19.864Z,66.1
2016-05-26T07:59:19.883Z,65.81
2016-05-26T08:00:19.886Z,65.33
2016-05-26T08:01:19.904Z,63.32
2016-05-26T08:02:19.924Z,63.99
2016-05-26T08:03:19.926Z,64.56
2016-05-26T08:04:19.788Z,64.56
2016-05-26T08:05:19.978Z,64.4
2016-05-26T08:06:19.950Z,64.31
2016-05-26T08:07:19.983Z,64.18
2016-05-26T08:08:19.985Z,64.79
2016-05-26T08:09:20.005Z,64.5
2016-05-26T08:10:20.008Z,64.4
2016-05-26T08:11:20.026Z,64.4
2016-05-26T08:12:20.044Z,64.6
2016-05-26T08:13:20.046Z,63.92
2016-05-26T08:14:20.049Z,63.73
2016-05-26T08:15:20.068Z,63.25
2016-05-26T08:16:20.087Z,63.73
2016-05-26T08:17:20.167Z,63.64
2016-05-26T08:18:20.091Z,62.68
2016-05-26T08:19:20.329Z,62.96
2016-05-26T08:20:20.143Z,63.06
2016-05-26T08:21:20.162Z,63.73
2016-05-26T08:22:20.164Z,63.73
2016-05-26T08:23:20.167Z,64.12
2016-05-26T08:24:20.217Z,63.35
2016-05-26T08:25:20.391Z,63.64
2016-05-26T08:26:20.909Z,63.06
2016-05-26T08:27:20.397Z,64.12
2016-05-26T08:28:20.258Z,63.45
2016-05-26T08:29:20.230Z,63.92
2016-05-26T08:30:20.280Z,64.12
2016-05-26T08:31:20.282Z,63.83
2016-05-26T08:32:20.285Z,63.92
2016-05-26T08:33:20.304Z,63.92
2016-05-26T08:34:20.305Z,63.92
2016-05-26T08:35:20.168Z,63.73
2016-05-26T08:36:20.327Z,63.35
2016-05-26T08:37:20.549Z,63.09
2016-05-26T08:38:20.349Z,63.57
2016-05-26T08:39:20.383Z,63.76
2016-05-26T08:40:20.384Z,62.8
2016-05-26T08:41:20.388Z,61.36
2016-05-26T08:42:20.422Z,61.65
2016-05-26T08:43:20.440Z,62.13
2016-05-26T08:44:20.443Z,61.94
2016-05-26T08:45:20.445Z,61.58
2016-05-26T08:46:20.479Z,60.91
2016-05-26T08:47:20.326Z,61.68
2016-05-26T08:48:34.969Z,61.97
2016-05-26T08:49:20.784Z,61.77
2016-05-26T08:50:20.553Z,61.1
2016-05-26T08:51:20.727Z,60.72
2016-05-26T08:52:20.542Z,61.29
2016-05-26T08:53:20.545Z,60.81
2016-05-26T08:54:20.563Z,61.39
2016-05-26T08:55:20.581Z,61.39
2016-05-26T08:56:20.647Z,61.84
2016-05-26T08:57:20.462Z,60.88
2016-05-26T08:58:20.620Z,60.88
2016-05-26T08:59:20.670Z,60.69
2016-05-26T09:00:20.689Z,62.13
2016-05-26T09:01:20.660Z,62.13
2016-05-26T09:02:20.678Z,61.74
2016-05-26T09:03:20.681Z,62.68
2016-05-26T09:04:20.699Z,62.48
2016-05-26T09:05:20.718Z,63.54
2016-05-26T09:06:20.752Z,62.96
2016-05-26T09:07:21.410Z,63.35
2016-05-26T09:08:20.757Z,63.41
2016-05-26T09:09:21.057Z,63.25
2016-05-26T09:10:20.777Z,63.7
2016-05-26T09:11:21.499Z,64.47
2016-05-26T09:12:21.440Z,64.28
2016-05-26T09:13:20.645Z,64.47
2016-05-26T09:14:20.820Z,64.56
2016-05-26T09:15:20.838Z,64.66
2016-05-26T09:16:20.888Z,64.95
2016-05-26T09:17:21.640Z,64.37
2016-05-26T09:18:21.081Z,63.79
2016-05-26T09:19:20.896Z,64.18
2016-05-26T09:20:20.914Z,64.28
2016-05-26T09:21:21.276Z,64.18
2016-05-26T09:22:21.139Z,64.47
2016-05-26T09:23:20.923Z,64.66
2016-05-26T09:24:20.957Z,64.56
2016-05-26T09:25:20.958Z,64.28
2016-05-26T09:26:21.540Z,64.76
2016-05-26T09:27:21.167Z,64.37
2016-05-26T09:28:20.983Z,64.31
2016-05-26T09:29:20.861Z,62.87
2016-05-26T09:30:21.020Z,63.06
2016-05-26T09:31:20.959Z,62.77
2016-05-26T09:32:21.603Z,62.38
2016-05-26T09:33:21.044Z,62.03
2016-05-26T09:34:21.061Z,62.41
2016-05-26T09:35:21.877Z,62.71
2016-05-26T09:36:22.066Z,61.74
2016-05-26T09:37:21.116Z,61.36
2016-05-26T09:38:21.900Z,61.65
2016-05-26T09:39:21.138Z,60.78
2016-05-26T09:40:21.140Z,61.16
2016-05-26T09:41:21.174Z,61.55
2016-05-26T09:42:21.458Z,61.55
2016-05-26T09:43:21.945Z,61.07
2016-05-26T09:44:21.682Z,61.55
2016-05-26T09:45:21.607Z,61.74
2016-05-26T09:46:21.219Z,60.88
2016-05-26T09:47:21.268Z,61.07
2016-05-26T09:48:21.130Z,60.78
2016-05-26T09:49:21.258Z,60.78
2016-05-26T09:50:22.151Z,62.03
2016-05-26T09:51:21.279Z,61.77
2016-05-26T09:52:21.281Z,60.81
2016-05-26T09:53:21.863Z,61.1
2016-05-26T09:54:21.521Z,61.68
2016-05-26T09:55:21.618Z,59.66
2016-05-26T09:56:21.339Z,60.24
2016-05-26T09:57:21.373Z,60.62
2016-05-26T09:58:21.767Z,60.81
2016-05-26T09:59:22.254Z,60.33
2016-05-26T10:00:21.397Z,60.65
2016-05-26T10:01:21.400Z,60.75
2016-05-26T10:02:21.417Z,60.46
2016-05-26T10:03:22.139Z,60.46
2016-05-26T10:04:21.455Z,59.2
2016-05-26T10:05:21.505Z,58.72
2016-05-26T10:06:21.960Z,58.24
2016-05-26T10:07:21.900Z,58.92
2016-05-26T10:08:21.513Z,59.49
2016-05-26T10:09:21.358Z,58.17
2016-05-26T10:10:21.971Z,58.56
2016-05-26T10:11:21.599Z,58.56
2016-05-26T10:12:21.399Z,58.24
2016-05-26T10:13:21.588Z,57.6
2016-05-26T10:14:22.154Z,57.21
2016-05-26T10:15:21.594Z,57.21
2016-05-26T10:16:21.612Z,57.69
2016-05-26T10:17:22.223Z,56.92
2016-05-26T10:18:22.055Z,57.21
2016-05-26T10:19:21.651Z,58.08
2016-05-26T10:20:21.513Z,57.79
2016-05-26T10:21:21.937Z,57.69
2016-05-26T10:22:22.284Z,57.31
2016-05-26T10:23:35.990Z,55.67
2016-05-26T10:24:21.727Z,55.99
2016-05-26T10:25:21.745Z,56.09
2016-05-26T10:26:21.982Z,56.37
2016-05-26T10:27:21.767Z,56.37
2016-05-26T10:28:21.785Z,57.34
2016-05-26T10:29:21.647Z,57.24
2016-05-26T10:30:21.806Z,56.47
2016-05-26T10:31:21.667Z,55.89
2016-05-26T10:32:22.030Z,56.18
2016-05-26T10:33:22.111Z,54.74
2016-05-26T10:34:22.285Z,55.41
2016-05-26T10:35:22.225Z,55.79
2016-05-26T10:36:21.899Z,55.51
2016-05-26T10:37:22.403Z,55.7
2016-05-26T10:38:21.936Z,54.44
2016-05-26T10:39:36.017Z,56.27
2016-05-26T10:40:21.958Z,55.54
2016-05-26T10:41:21.804Z,54.86
2016-05-26T10:43:21.996Z,55.05
2016-05-26T10:44:21.843Z,53.7
2016-05-26T10:45:22.222Z,52.73
2016-05-26T10:47:22.258Z,53.19
2016-05-26T10:48:22.088Z,52.55
2016-05-26T10:49:22.091Z,53.8
2016-05-26T10:50:22.093Z,52.83
2016-05-26T10:51:22.097Z,51.77
2016-05-26T10:52:22.162Z,52.83
2016-05-26T10:53:22.149Z,52.73
2016-05-26T10:54:22.229Z,52.83
2016-05-26T10:55:22.389Z,54.28
2016-05-26T10:56:22.187Z,54.18
2016-05-26T10:57:22.034Z,53.7
2016-05-26T10:58:22.209Z,55.05
2016-05-26T10:59:22.212Z,54.66
2016-05-26T11:00:22.292Z,53.8
2016-05-26T11:01:22.248Z,53.8
2016-05-26T11:02:22.267Z,53.8
2016-05-26T11:03:22.331Z,53.41
2016-05-26T11:04:22.303Z,51.97
2016-05-26T11:05:22.306Z,52.16
2016-05-26T11:06:22.325Z,52.06
2016-05-26T11:07:22.327Z,52.06
2016-05-26T11:08:22.361Z,51.97
2016-05-26T11:09:22.364Z,51.87
2016-05-26T11:10:22.382Z,51.89
2016-05-26T11:11:22.385Z,51.8
2016-05-26T11:12:22.403Z,52.76
2016-05-26T11:13:22.296Z,53.15
2016-05-26T11:14:22.440Z,52.57
2016-05-26T11:15:22.473Z,52.28
2016-05-26T11:16:22.507Z,52.57
2016-05-26T11:17:22.479Z,52.76
2016-05-26T11:18:22.497Z,51.7
2016-05-26T11:19:22.532Z,51.32
2016-05-26T11:20:22.768Z,51.22
2016-05-26T11:21:22.537Z,52.19
2016-05-26T11:22:22.555Z,52.76
2016-05-26T11:23:22.573Z,51.7
2016-05-26T11:24:22.576Z,51.7
2016-05-26T11:25:22.595Z,52.37
2016-05-26T11:26:22.612Z,52.59
2016-05-26T11:27:22.459Z,53.08
2016-05-26T11:28:22.836Z,52.21
2016-05-26T11:29:22.652Z,50.28
2016-05-26T11:30:22.670Z,51.53
2016-05-26T11:31:22.532Z,51.05
2016-05-26T11:32:22.706Z,51.92
2016-05-26T11:33:22.709Z,52.14
2016-05-26T11:34:22.587Z,52.91
2016-05-26T11:35:22.747Z,50.69
2016-05-26T11:36:22.983Z,47.02
2016-05-26T11:37:22.798Z,47.6
2016-05-26T11:38:22.801Z,47.89
2016-05-26T11:39:23.053Z,47.5
2016-05-26T11:40:22.838Z,48.28
2016-05-26T11:41:22.841Z,49.15
2016-05-26T11:42:22.859Z,49.53
2016-05-26T11:43:22.861Z,49.73
2016-05-26T11:44:22.880Z,48.28
2016-05-26T11:45:23.132Z,48.76
2016-05-26T11:46:22.901Z,49.24
2016-05-26T11:47:22.919Z,47.99
2016-05-26T11:48:23.172Z,47.99
2016-05-26T11:49:23.190Z,47.7
2016-05-26T11:50:22.990Z,47.8
2016-05-26T11:51:23.180Z,47.6
2016-05-26T11:52:23.011Z,48.08
2016-05-26T11:53:23.029Z,48.28
2016-05-26T11:54:23.032Z,48.76
2016-05-26T11:55:22.878Z,48.97
2016-05-26T11:56:22.913Z,49.05
2016-05-26T11:57:23.290Z,47.43
2016-05-26T11:58:23.104Z,47.91
2016-05-26T11:59:23.108Z,48.21
2016-05-26T12:00:23.126Z,48.01
2016-05-26T12:01:23.206Z,47.91
2016-05-26T12:02:23.006Z,48.01
2016-05-26T12:03:23.025Z,43.47
2016-05-26T12:04:23.184Z,42.31
2016-05-26T12:05:23.202Z,45.31
2016-05-26T12:06:23.220Z,45.79
2016-05-26T12:07:23.098Z,46.56
2016-05-26T12:08:23.100Z,47.72
2016-05-26T12:09:23.276Z,47.53
2016-05-26T12:10:23.294Z,46.95
2016-05-26T12:11:23.311Z,46.95
2016-05-26T12:12:23.346Z,46.78
2016-05-26T12:13:23.349Z,46.56
2016-05-26T12:14:23.180Z,46.56
2016-05-26T12:15:23.369Z,47.63
2016-05-26T12:16:23.388Z,45.14
2016-05-26T12:17:23.405Z,45.79
2016-05-26T12:18:23.440Z,46.37
2016-05-26T12:19:23.427Z,46.75
2016-05-26T12:20:23.649Z,45.5
2016-05-26T12:21:23.448Z,44.92
2016-05-26T12:22:23.482Z,45.11
2016-05-26T12:23:23.484Z,43.18
2016-05-26T12:24:23.519Z,45.31
2016-05-26T12:25:23.521Z,45.59
2016-05-26T12:26:23.539Z,46.56
2016-05-26T12:27:23.574Z,47.43
2016-05-26T12:28:23.560Z,48.01
2016-05-26T12:29:23.579Z,48.11
2016-05-26T12:30:23.598Z,46.47
2016-05-26T12:31:23.615Z,47.72
2016-05-26T12:32:23.634Z,46.75
2016-05-26T12:33:23.493Z,45.72
2016-05-26T12:34:23.718Z,45.11
2016-05-26T12:35:23.671Z,46.85
2016-05-26T12:36:23.720Z,46.47
2016-05-26T12:37:23.706Z,45.31
2016-05-26T12:38:23.710Z,44.56
2016-05-26T12:39:23.760Z,44.94
2016-05-26T12:40:23.778Z,43.98
2016-05-26T12:41:23.781Z,43.68
2016-05-26T12:42:23.783Z,43.98
2016-05-26T12:43:23.802Z,43.4
2016-05-26T12:44:23.804Z,43.4
2016-05-26T12:45:24.229Z,42.62
2016-05-26T12:46:23.919Z,42.72
2016-05-26T12:47:23.922Z,41.27
2016-05-26T12:48:23.893Z,43.01
2016-05-26T12:49:24.099Z,42.62
2016-05-26T12:50:24.149Z,43.01
2016-05-26T12:51:24.135Z,43.3
2016-05-26T12:52:23.966Z,43.28
2016-05-26T12:53:23.969Z,41.93
2016-05-26T12:54:23.972Z,43.08
2016-05-26T12:55:23.990Z,43.76
2016-05-26T12:56:24.024Z,43.18
2016-05-26T12:57:24.027Z,42.6
2016-05-26T12:58:23.874Z,43.57
2016-05-26T12:59:24.110Z,45.59
2016-05-26T13:00:24.144Z,44.82
2016-05-26T13:01:24.132Z,43.76
2016-05-26T13:02:24.212Z,42.5
2016-05-26T13:03:24.512Z,43.47
2016-05-26T13:04:24.234Z,43.37
2016-05-26T13:05:24.579Z,43.18
2016-05-26T13:06:24.317Z,44.05
2016-05-26T13:07:24.288Z,44.43
2016-05-26T13:08:24.306Z,44.84
2016-05-26T13:09:24.247Z,44.94
2016-05-26T13:10:24.234Z,43.95
2016-05-26T13:11:24.409Z,44.07
2016-05-26T13:12:24.458Z,43.98
2016-05-26T13:13:25.242Z,44.26
2016-05-26T13:14:24.339Z,44.46
2016-05-26T13:15:24.434Z,43.78
2016-05-26T13:16:24.734Z,43.49
2016-05-26T13:17:24.549Z,43.2
2016-05-26T13:18:24.771Z,43.78
2016-05-26T13:19:24.414Z,46.47
2016-05-26T13:20:24.588Z,46.17
2016-05-26T13:21:24.466Z,46.95
2016-05-26T13:22:24.860Z,46.56
2016-05-26T13:23:24.596Z,45.62
2016-05-26T13:24:24.849Z,45.62
2016-05-26T13:25:24.524Z,45.62
2016-05-26T13:26:24.605Z,44.65
2016-05-26T13:27:24.857Z,45.72
2016-05-26T13:28:24.548Z,45.42
2016-05-26T13:29:24.504Z,45.04
2016-05-26T13:30:24.600Z,44.07
2016-05-26T13:31:24.977Z,43.59
2016-05-26T13:32:24.715Z,43.49
2016-05-26T13:33:25.343Z,44.07
2016-05-26T13:34:24.642Z,45.14
2016-05-26T13:35:24.660Z,43.4
2016-05-26T13:36:24.678Z,43.01
2016-05-26T13:37:24.744Z,44.07
2016-05-26T13:38:24.762Z,45.54
2016-05-26T13:39:24.748Z,44.29
2016-05-26T13:40:24.737Z,42.76
2016-05-26T13:41:24.801Z,41.31
2016-05-26T13:42:24.726Z,40.44
2016-05-26T13:43:24.759Z,40.17
2016-05-26T13:44:24.762Z,40.07
2016-05-26T13:45:24.765Z,40.36
2016-05-26T13:46:24.783Z,39.11
2016-05-26T13:47:24.802Z,41.52
2016-05-26T13:48:24.819Z,40.36
2016-05-26T13:49:24.838Z,38.45
2016-05-26T13:50:24.841Z,39.03
2016-05-26T13:51:24.860Z,39.9
2016-05-26T13:52:24.878Z,40.09
2016-05-26T13:53:24.943Z,40
2016-05-26T13:54:24.946Z,41.25
2016-05-26T13:55:24.933Z,40.58
2016-05-26T13:56:24.952Z,40.67
2016-05-26T13:57:24.954Z,41.33
2016-05-26T13:58:24.831Z,40.36
2016-05-26T13:59:25.007Z,40.75
2016-05-26T14:00:25.024Z,40.17
2016-05-26T14:01:25.043Z,40.65
2016-05-26T14:02:25.045Z,41.25
2016-05-26T14:03:25.063Z,41.45
2016-05-26T14:04:24.926Z,41.55
2016-05-26T14:05:25.101Z,40.96
2016-05-26T14:06:25.134Z,40.67
2016-05-26T14:07:24.981Z,40.77
2016-05-26T14:08:24.687Z,40.58
2016-05-26T14:09:25.174Z,41.25
2016-05-26T14:10:25.020Z,39.32
2016-05-26T14:11:25.054Z,39.8
2016-05-26T14:12:25.228Z,39.51
2016-05-26T14:13:25.231Z,40.38
2016-05-26T14:14:25.250Z,39.51
2016-05-26T14:15:25.267Z,39.2
2016-05-26T14:16:25.489Z,39.29
2016-05-26T14:17:25.491Z,39.2
2016-05-26T14:18:25.776Z,38.33
2016-05-26T14:19:25.200Z,38.43
2016-05-26T14:20:25.358Z,39.2
2016-05-26T14:21:25.361Z,39.01
2016-05-26T14:22:25.630Z,40.17
2016-05-26T14:23:25.399Z,40.36
2016-05-26T14:24:25.245Z,39.88
2016-05-26T14:25:25.419Z,39.88
2016-05-26T14:26:25.454Z,40.07
2016-05-26T14:27:25.457Z,39.2
2016-05-26T14:28:25.521Z,39.86
2016-05-26T14:29:25.696Z,39.18
2016-05-26T14:30:25.558Z,39.09
2016-05-26T14:31:25.529Z,37.73
2016-05-26T14:32:25.549Z,37.9
2016-05-26T14:33:25.598Z,39.16
2016-05-26T14:34:25.803Z,40.03
2016-05-26T14:35:25.587Z,39.94
2016-05-26T14:36:25.606Z,40.69
2016-05-26T14:37:25.624Z,40.11
2016-05-26T14:38:25.486Z,40.11
2016-05-26T14:39:25.645Z,41.29
2016-05-26T14:40:25.662Z,39.14
2016-05-26T14:41:25.697Z,40.69
2016-05-26T14:42:25.700Z,41.08
2016-05-26T14:43:25.717Z,40.5
2016-05-26T14:44:25.737Z,39.61
2016-05-26T14:45:25.598Z,40.2
2016-05-26T14:46:25.758Z,40.88
2016-05-26T14:47:25.306Z,40.67
2016-05-26T14:48:25.809Z,39.9
2016-05-26T14:49:26.047Z,40.38
2016-05-26T14:50:25.847Z,40.96
2016-05-26T14:51:25.849Z,39.92
2016-05-26T14:52:25.852Z,40.59
2016-05-26T14:53:25.745Z,40.98
2016-05-26T14:54:25.919Z,40.88
2016-05-26T14:55:25.751Z,41.27
2016-05-26T14:56:26.128Z,41.27
2016-05-26T14:57:25.927Z,41.56
2016-05-26T14:58:25.961Z,41.36
2016-05-26T14:59:25.949Z,41.17
2016-05-26T15:00:25.982Z,41.19
2016-05-26T15:01:25.845Z,41.19
2016-05-26T15:02:26.004Z,40.32
2016-05-26T15:03:26.022Z,41.19
2016-05-26T15:04:25.571Z,40.23
2016-05-26T15:05:26.309Z,40.03
2016-05-26T15:06:26.093Z,39.67
2016-05-26T15:07:26.095Z,40.05
2016-05-26T15:08:26.129Z,39.09
2016-05-26T15:09:26.101Z,40.05
2016-05-26T15:10:25.993Z,38.91
2016-05-26T15:11:26.153Z,37.17
2016-05-26T15:12:26.218Z,37.15
2016-05-26T15:13:26.034Z,37.63
2016-05-26T15:14:26.208Z,38.02
2016-05-26T15:15:26.242Z,38.79
2016-05-26T15:16:26.228Z,38.7
2016-05-26T15:17:40.328Z,38.89
2016-05-26T15:18:26.125Z,39.06
2016-05-26T15:19:26.284Z,39.26
2016-05-26T15:20:26.302Z,39.26
2016-05-26T15:21:26.508Z,39.06
2016-05-26T15:22:26.323Z,39.16
2016-05-26T15:23:26.450Z,39.06
2016-05-26T15:24:26.360Z,38.78
2016-05-26T15:25:26.393Z,39.24
2016-05-26T15:26:26.912Z,39.36
2016-05-26T15:27:26.414Z,40.42
2016-05-26T15:28:26.308Z,40.32
2016-05-26T15:29:26.435Z,40.42
2016-05-26T15:30:26.454Z,40.13
2016-05-26T15:31:26.457Z,40.03
2016-05-26T15:32:26.474Z,39.36
2016-05-26T15:33:27.055Z,40.03
2016-05-26T15:34:26.902Z,40.9
2016-05-26T15:35:26.529Z,41.58
2016-05-26T15:36:26.549Z,39.74
2016-05-26T15:37:26.551Z,40.52
2016-05-26T15:38:26.568Z,40.32
2016-05-26T15:39:26.619Z,40.32
2016-05-26T15:40:26.590Z,41.02
2016-05-26T15:41:26.609Z,41.41
2016-05-26T15:42:26.643Z,39.47
2016-05-26T15:43:26.676Z,39.55
2016-05-26T15:44:26.679Z,40.25
2016-05-26T15:45:26.681Z,40.05
2016-05-26T15:46:26.700Z,39.74
2016-05-26T15:47:26.703Z,38.87
2016-05-26T15:48:26.831Z,39.36
2016-05-26T15:49:26.739Z,40.32
2016-05-26T15:50:26.633Z,40.13
2016-05-26T15:51:26.323Z,39.64
2016-05-26T15:52:26.825Z,37.81
2016-05-26T15:53:27.031Z,38.68
2016-05-26T15:54:26.831Z,38.85
2016-05-26T15:55:26.864Z,39.14
2016-05-26T15:56:26.852Z,39.72
2016-05-26T15:57:26.870Z,39.94
2016-05-26T15:58:26.732Z,40.3
2016-05-26T15:59:26.751Z,41.08
2016-05-26T16:00:26.924Z,41.85
2016-05-26T16:01:26.927Z,41.75
2016-05-26T16:02:26.947Z,41.17
2016-05-26T16:03:26.980Z,40.78
2016-05-26T16:04:26.999Z,39.34
2016-05-26T16:05:27.001Z,40.03
2016-05-26T16:06:27.035Z,40.11
2016-05-26T16:08:27.071Z,41.27
2016-05-26T16:09:27.074Z,41.08
2016-05-26T16:10:27.076Z,41.17
2016-05-26T16:11:27.080Z,40.4
2016-05-26T16:12:27.114Z,41.66
2016-05-26T16:13:26.960Z,40.98
2016-05-26T16:14:27.120Z,41.05
2016-05-26T16:15:27.387Z,40.47
2016-05-26T16:16:27.359Z,41.27
2016-05-26T16:17:27.173Z,40.88
2016-05-26T16:18:27.192Z,41.66
2016-05-26T16:19:27.211Z,41.54
2016-05-26T16:20:27.214Z,41.36
2016-05-26T16:21:27.232Z,39.8
2016-05-26T16:22:27.484Z,40.19
2016-05-26T16:23:27.284Z,39.8
2016-05-26T16:24:27.302Z,38.95
2016-05-26T16:25:27.289Z,39.9
2016-05-26T16:26:27.510Z,40.19
2016-05-26T16:27:27.325Z,39.7
2016-05-26T16:28:27.344Z,40.28
2016-05-26T16:29:27.347Z,40.57
2016-05-26T16:30:27.397Z,41.25
2016-05-26T16:31:27.399Z,39.9
2016-05-26T16:32:27.385Z,40.09
2016-05-26T16:33:27.733Z,40.67
2016-05-26T16:34:27.438Z,40.09
2016-05-26T16:35:27.457Z,40.67
2016-05-26T16:36:27.475Z,41.05
2016-05-26T16:37:27.682Z,41.63
2016-05-26T16:38:27.496Z,41.93
2016-05-26T16:39:27.515Z,41.35
2016-05-26T16:40:27.720Z,40.19
2016-05-26T16:41:27.535Z,41.25
2016-05-26T16:42:27.554Z,41.44
2016-05-26T16:43:27.587Z,41.54
2016-05-26T16:44:27.832Z,42.02
2016-05-26T16:45:27.641Z,42.33
2016-05-26T16:46:27.716Z,42.31
2016-05-26T16:47:27.729Z,42.31
2016-05-26T16:48:27.789Z,41.63
2016-05-26T16:49:27.818Z,41.93
2016-05-26T16:50:27.831Z,42.21
2016-05-26T16:51:27.842Z,42.89
2016-05-26T16:52:27.714Z,42.41
2016-05-26T16:53:27.882Z,41.83
2016-05-26T16:54:27.904Z,41.93
2016-05-26T16:55:28.145Z,41.54
2016-05-26T16:57:27.985Z,41.13
2016-05-26T16:58:28.022Z,41.71
2016-05-26T16:59:28.011Z,42.12
2016-05-26T17:00:28.015Z,42.02
2016-05-26T17:01:28.237Z,42.41
2016-05-26T17:02:28.054Z,41.71
2016-05-26T17:03:28.074Z,41.52
2016-05-26T17:04:27.936Z,41.33
2016-05-26T17:05:28.095Z,41.42
2016-05-26T17:06:28.098Z,41.03